Mercury — 3FFC7 — position and weather

sailwx.info

Track history (hours):
 
Tides and Currents Weather Stations Pressure Air Temp Water Temp Dewpoint Dewpoint Depression Visibility Wind Speed Wind Dir Waves Ship Positions

Mercury

Operator: Royal Caribbean Cruises Ltd

Last reported at 2019-Jun-11 14:56 UTC. Time now 2019-Jun-16 14:45 UTC.
Position N 33°33' E 026°20'.

Length 199 m; draft 8.8 m.

Type: Cargo ship. MMSI: 371862000.

Date/timePositionNaut miles runAvg speedWind from/ knotsBaromVisibWave heightAir tempDewpointWater temp
2019-Jun-11 14:56N 33°33' E 026°20'614.1
2019-Jun-11 14:30N 33°35' E 026°13'1214.2
2019-Jun-11 13:38N 33°40' E 025°60'214.2
2019-Jun-11 13:30N 33°41' E 025°58'714.1
2019-Jun-11 13:00N 33°44' E 025°50'713.9
2019-Jun-11 12:30N 33°46' E 025°43'714.0
2019-Jun-11 12:01N 33°49' E 025°35'714.2
2019-Jun-11 11:31N 33°52' E 025°27'5213.6
2019-Jun-11 07:42N 34°12' E 024°29'313.5
2019-Jun-11 07:30N 34°13' E 024°26'713.6
2019-Jun-11 07:00N 34°16' E 024°19'713.7
2019-Jun-11 06:30N 34°19' E 024°11'713.8
2019-Jun-11 06:00N 34°22' E 024°04'713.8
2019-Jun-11 05:30N 34°25' E 023°56'713.9
2019-Jun-11 05:00N 34°28' E 023°49'714.0
2019-Jun-11 04:30N 34°31' E 023°41'70213.7
2019-Jun-09 01:27N 43°45' E 014°25'613.7
2019-Jun-09 01:00N 43°49' E 014°19'1113.8
2019-Jun-09 00:13N 43°58' E 014°10'313.7
2019-Jun-09 00:00N 43°60' E 014°08'713.7
2019-Jun-08 23:31N 44°05' E 014°02'713.7
2019-Jun-08 23:00N 44°11' E 013°57'713.5
2019-Jun-08 22:30N 44°17' E 013°52'713.6
2019-Jun-08 22:01N 44°23' E 013°47'713.6
2019-Jun-08 21:31N 44°28' E 013°41'713.3
2019-Jun-08 21:00N 44°34' E 013°36'713.3
2019-Jun-08 20:30N 44°39' E 013°31'713.5
2019-Jun-08 20:00N 44°45' E 013°26'713.5
2019-Jun-08 19:30N 44°51' E 013°21'713.4
2019-Jun-08 19:01N 44°56' E 013°16'713.5
2019-Jun-08 18:30N 45°02' E 013°10'713.6
2019-Jun-08 18:00N 45°07' E 013°04'713.5
2019-Jun-08 17:31N 45°13' E 013°01'713.6
2019-Jun-08 17:00N 45°20' E 012°59'612.6
2019-Jun-08 16:31N 45°26' E 012°60'713.6
2019-Jun-08 16:00N 45°30' E 013°08'713.4
2019-Jun-08 15:31N 45°33' E 013°16'713.4
2019-Jun-08 15:01N 45°35' E 013°25'713.2
2019-Jun-08 14:30N 45°38' E 013°34'611.4
2019-Jun-08 14:00N 45°34' E 013°41'2 4.3
2019-Jun-08 13:30N 45°33' E 013°44'0 0.8
2019-Jun-08 13:00N 45°33' E 013°44'0 0.0
2019-Jun-08 12:30N 45°33' E 013°44'0 0.0
2019-Jun-08 12:00N 45°33' E 013°44'0 0.0
2019-Jun-08 11:30N 45°33' E 013°44'0 0.0
2019-Jun-08 10:57N 45°33' E 013°44'0 0.0
2019-Jun-08 10:30N 45°33' E 013°44'0 0.0
2019-Jun-08 10:00N 45°33' E 013°44'0 0.0
2019-Jun-08 09:30N 45°33' E 013°44'0 0.0
2019-Jun-08 09:00N 45°33' E 013°44'0 0.0
2019-Jun-08 08:30N 45°33' E 013°44'0 0.0
2019-Jun-08 08:00N 45°33' E 013°44'0 0.0
2019-Jun-08 07:30N 45°33' E 013°44'0 0.0
2019-Jun-08 07:00N 45°33' E 013°44'0 0.0
2019-Jun-08 06:27N 45°33' E 013°44'0 0.0
2019-Jun-08 06:00N 45°33' E 013°44'0 0.0
2019-Jun-08 05:30N 45°33' E 013°44'0 0.0
2019-Jun-08 05:00N 45°33' E 013°44'0 0.0
2019-Jun-08 04:30N 45°33' E 013°44'0 0.0
2019-Jun-08 04:00N 45°33' E 013°44'0 0.0
2019-Jun-08 03:30N 45°33' E 013°44'0 0.0
2019-Jun-08 02:57N 45°33' E 013°44'0 0.0
2019-Jun-08 02:30N 45°33' E 013°44'0 0.0
2019-Jun-08 01:57N 45°33' E 013°44'0 0.0
2019-Jun-08 01:24N 45°33' E 013°44'0 0.0
2019-Jun-08 01:00N 45°33' E 013°44'0 0.0
2019-Jun-08 00:30N 45°33' E 013°44'0 0.0
2019-Jun-08 00:00N 45°33' E 013°44'0 0.0
2019-Jun-07 23:24N 45°33' E 013°44'0 0.0
2019-Jun-07 23:00N 45°33' E 013°44'0 0.0
2019-Jun-07 22:30N 45°33' E 013°44'0 0.0
2019-Jun-07 22:00N 45°33' E 013°44'0 0.0
2019-Jun-07 21:30N 45°33' E 013°44'0 0.0
2019-Jun-07 21:00N 45°33' E 013°44'0 0.0
2019-Jun-07 20:30N 45°33' E 013°44'0 0.0
2019-Jun-07 20:00N 45°33' E 013°44'0 0.0
2019-Jun-07 19:24N 45°33' E 013°44'0 0.0
2019-Jun-07 19:00N 45°33' E 013°44'0 0.0
2019-Jun-07 18:24N 45°33' E 013°44'0 0.0
2019-Jun-07 18:00N 45°33' E 013°44'0 0.0
2019-Jun-07 17:30N 45°33' E 013°44'0 0.0
2019-Jun-07 17:00N 45°33' E 013°44'0 0.0
2019-Jun-07 16:27N 45°33' E 013°44'0 0.0
2019-Jun-07 15:57N 45°33' E 013°44'0 0.0
2019-Jun-07 15:30N 45°33' E 013°44'0 0.0
2019-Jun-07 15:00N 45°33' E 013°44'0 0.0
2019-Jun-07 14:30N 45°33' E 013°44'0 0.0
2019-Jun-07 14:00N 45°33' E 013°44'0 0.0
2019-Jun-07 13:30N 45°33' E 013°44'0 0.0
2019-Jun-07 12:54N 45°33' E 013°44'0 0.0
2019-Jun-07 12:30N 45°33' E 013°44'0 0.0
2019-Jun-07 12:00N 45°33' E 013°44'0 0.0
2019-Jun-07 11:27N 45°33' E 013°44'0 0.0
2019-Jun-07 10:57N 45°33' E 013°44'0 0.0
2019-Jun-07 10:30N 45°33' E 013°44'0 0.0
2019-Jun-07 09:48N 45°33' E 013°44'0 0.0
2019-Jun-07 09:30N 45°33' E 013°44'0 0.0
2019-Jun-07 08:57N 45°33' E 013°44'0 0.0
2019-Jun-07 08:30N 45°33' E 013°44'0 0.0
2019-Jun-07 07:57N 45°33' E 013°44'0 0.0
2019-Jun-07 07:30N 45°33' E 013°44'0 0.0
2019-Jun-07 07:00N 45°33' E 013°44'0 0.0
2019-Jun-07 06:24N 45°33' E 013°44'0 0.0
2019-Jun-07 06:00N 45°33' E 013°44'0 0.0
2019-Jun-07 05:30N 45°33' E 013°44'0 0.0
2019-Jun-07 04:57N 45°33' E 013°44'0 0.0
2019-Jun-07 04:30N 45°33' E 013°44'0 0.0
2019-Jun-07 04:00N 45°33' E 013°44'0 0.0
2019-Jun-07 03:27N 45°33' E 013°44'0 0.0
2019-Jun-07 03:00N 45°33' E 013°44'0 0.0
2019-Jun-07 02:30N 45°33' E 013°44'0 0.0
2019-Jun-07 02:00N 45°33' E 013°44'0 0.0
2019-Jun-07 01:30N 45°33' E 013°44'0 0.0
2019-Jun-07 00:57N 45°33' E 013°44'0 0.0
2019-Jun-07 00:30N 45°33' E 013°44'0 0.0
2019-Jun-07 00:00N 45°33' E 013°44'0 0.0
2019-Jun-06 23:30N 45°33' E 013°44'0 0.0
2019-Jun-06 22:57N 45°33' E 013°44'0 0.0
2019-Jun-06 22:27N 45°33' E 013°44'0 0.0
2019-Jun-06 22:00N 45°33' E 013°44'0 0.0
2019-Jun-06 21:27N 45°33' E 013°44'0 0.0
2019-Jun-06 21:00N 45°33' E 013°44'0 0.0
2019-Jun-06 20:30N 45°33' E 013°44'0 0.0
2019-Jun-06 19:57N 45°33' E 013°44'0 0.0
2019-Jun-06 19:27N 45°33' E 013°44'0 0.0
2019-Jun-06 18:57N 45°33' E 013°44'0 0.0
2019-Jun-06 18:30N 45°33' E 013°44'0 0.0
2019-Jun-06 18:00N 45°33' E 013°44'0 0.0
2019-Jun-06 17:27N 45°33' E 013°44'0 0.0
2019-Jun-06 17:00N 45°33' E 013°44'0 0.0
2019-Jun-06 16:30N 45°33' E 013°44'0 0.0
2019-Jun-06 16:00N 45°33' E 013°44'0 0.0
2019-Jun-06 15:27N 45°33' E 013°44'0 0.0
2019-Jun-06 15:00N 45°33' E 013°44'0 0.0
2019-Jun-06 14:27N 45°33' E 013°44'0 0.0
2019-Jun-06 14:00N 45°33' E 013°44'0 0.0
2019-Jun-06 13:27N 45°33' E 013°44'0 0.0
2019-Jun-06 13:00N 45°33' E 013°44'0 0.0
2019-Jun-06 12:30N 45°33' E 013°44'0 0.0
2019-Jun-06 12:00N 45°33' E 013°44'0 0.0
2019-Jun-06 11:30N 45°33' E 013°44'0 0.5
2019-Jun-06 11:00N 45°33' E 013°44'2 4.1
2019-Jun-06 10:30N 45°34' E 013°41'1 1.8
2019-Jun-06 09:59N 45°35' E 013°41'0 0.0
2019-Jun-06 09:29N 45°35' E 013°41'0 0.0
2019-Jun-06 08:56N 45°35' E 013°41'0 0.0
2019-Jun-06 08:26N 45°35' E 013°41'0 0.0
2019-Jun-06 07:53N 45°35' E 013°41'0 0.0
2019-Jun-06 07:17N 45°35' E 013°41'0 0.1
2019-Jun-06 06:56N 45°35' E 013°41'0 0.0
2019-Jun-06 06:29N 45°35' E 013°41'0 0.0
2019-Jun-06 05:59N 45°35' E 013°41'0 0.1
2019-Jun-06 05:26N 45°35' E 013°41'0 0.0
2019-Jun-06 04:59N 45°35' E 013°41'0 0.0
2019-Jun-06 04:29N 45°35' E 013°41'0 0.0
2019-Jun-06 03:53N 45°35' E 013°41'0 0.1
2019-Jun-06 03:26N 45°35' E 013°41'0 0.0
2019-Jun-06 02:59N 45°35' E 013°41'0 0.0
2019-Jun-06 02:29N 45°35' E 013°41'0 0.0
2019-Jun-06 01:59N 45°35' E 013°41'0 0.0
2019-Jun-06 01:20N 45°35' E 013°41'0 0.0
2019-Jun-06 00:59N 45°35' E 013°41'0 0.0
2019-Jun-06 00:29N 45°35' E 013°41'0 0.0
2019-Jun-05 23:59N 45°35' E 013°41'0 0.0
2019-Jun-05 23:29N 45°35' E 013°41'0 0.0
2019-Jun-05 22:59N 45°35' E 013°41'0 0.0
2019-Jun-05 22:29N 45°35' E 013°41'0 0.0
2019-Jun-05 21:56N 45°35' E 013°41'0 0.0
2019-Jun-05 21:26N 45°35' E 013°41'0 0.0
2019-Jun-05 20:59N 45°35' E 013°41'0 0.1
2019-Jun-05 20:29N 45°35' E 013°41'0 0.0
2019-Jun-05 19:56N 45°35' E 013°41'0 0.0
2019-Jun-05 19:29N 45°35' E 013°41'0 0.0
2019-Jun-05 18:56N 45°35' E 013°41'0 0.0
2019-Jun-05 18:29N 45°35' E 013°41'0 0.0
2019-Jun-05 17:59N 45°35' E 013°41'0 0.0
2019-Jun-05 17:29N 45°35' E 013°41'0 0.0
2019-Jun-05 16:56N 45°35' E 013°41'0 0.0
2019-Jun-05 16:29N 45°35' E 013°41'0 0.0
2019-Jun-05 15:53N 45°35' E 013°41'0 0.0
2019-Jun-05 15:23N 45°35' E 013°41'0 0.0
2019-Jun-05 14:59N 45°35' E 013°41'0 0.0
2019-Jun-05 14:26N 45°35' E 013°41'0 0.0
2019-Jun-05 13:59N 45°35' E 013°41'0 0.0
2019-Jun-05 13:29N 45°35' E 013°41'0 0.0
2019-Jun-05 12:53N 45°35' E 013°41'0 0.0
2019-Jun-05 12:26N 45°35' E 013°41'0 0.0
2019-Jun-05 11:59N 45°35' E 013°41'0 0.0
2019-Jun-05 11:23N 45°35' E 013°41'0 0.0
2019-Jun-05 10:53N 45°35' E 013°41'0 0.0
2019-Jun-05 10:29N 45°35' E 013°41'0 0.0
2019-Jun-05 09:53N 45°35' E 013°41'0 0.0
2019-Jun-05 09:26N 45°35' E 013°41'0 0.0
2019-Jun-05 08:50N 45°35' E 013°41'0 0.0
2019-Jun-05 08:29N 45°35' E 013°41'0 0.1
2019-Jun-05 07:59N 45°35' E 013°41'0 0.1
2019-Jun-05 07:29N 45°35' E 013°41'0 0.0
2019-Jun-05 06:53N 45°35' E 013°41'0 0.0
2019-Jun-05 06:29N 45°35' E 013°41'0 0.0
2019-Jun-05 05:59N 45°35' E 013°41'0 0.0
2019-Jun-05 05:29N 45°35' E 013°41'0 0.0
2019-Jun-05 04:59N 45°35' E 013°41'0 0.0
2019-Jun-05 04:29N 45°35' E 013°41'0 0.0
2019-Jun-05 03:59N 45°35' E 013°41'0 0.0
2019-Jun-05 03:29N 45°35' E 013°41'0 0.0
2019-Jun-05 02:56N 45°35' E 013°41'0 0.0
2019-Jun-05 02:29N 45°35' E 013°41'0 0.0
2019-Jun-05 01:59N 45°35' E 013°41'0 0.0
2019-Jun-05 01:29N 45°35' E 013°41'0 0.0
2019-Jun-05 00:59N 45°35' E 013°41'0 0.0
2019-Jun-05 00:29N 45°35' E 013°41'0 0.0
2019-Jun-04 23:59N 45°35' E 013°41'0 0.0
2019-Jun-04 23:29N 45°35' E 013°41'0 0.0
2019-Jun-04 22:59N 45°35' E 013°41'0 0.0
2019-Jun-04 22:29N 45°35' E 013°41'0 0.0
2019-Jun-04 21:59N 45°35' E 013°41'0 0.0
2019-Jun-04 21:29N 45°35' E 013°41'0 0.0
2019-Jun-04 20:59N 45°35' E 013°41'0 0.0
2019-Jun-04 20:29N 45°35' E 013°41'0 0.0
2019-Jun-04 19:59N 45°35' E 013°41'0 0.0
2019-Jun-04 19:29N 45°35' E 013°41'0 0.0
2019-Jun-04 18:59N 45°35' E 013°41'0 0.0
2019-Jun-04 18:29N 45°35' E 013°41'0 0.0
2019-Jun-04 17:59N 45°35' E 013°41'0 0.0
2019-Jun-04 17:29N 45°35' E 013°41'0 0.0
2019-Jun-04 16:59N 45°35' E 013°41'0 0.0
2019-Jun-04 16:29N 45°35' E 013°41'0 0.0
2019-Jun-04 15:59N 45°35' E 013°41'0 0.0
2019-Jun-04 15:29N 45°35' E 013°41'0 0.0
2019-Jun-04 14:59N 45°35' E 013°41'0 0.0
2019-Jun-04 14:29N 45°35' E 013°41'0 0.1
2019-Jun-04 13:59N 45°35' E 013°41'0 0.0
2019-Jun-04 13:29N 45°35' E 013°41'0 0.1
2019-Jun-04 12:59N 45°35' E 013°41'0 0.1
2019-Jun-04 12:29N 45°35' E 013°41'0 0.0
2019-Jun-04 11:59N 45°35' E 013°41'0 0.0
2019-Jun-04 11:29N 45°35' E 013°41'0 0.0
2019-Jun-04 10:59N 45°35' E 013°41'0 0.1
2019-Jun-04 10:29N 45°35' E 013°41'0 0.0
2019-Jun-04 09:59N 45°35' E 013°41'0 0.0
2019-Jun-04 09:29N 45°35' E 013°41'0 0.0
2019-Jun-04 08:59N 45°35' E 013°41'0 0.0
2019-Jun-04 08:29N 45°35' E 013°41'0 1.0
2019-Jun-04 08:00N 45°35' E 013°40'4 7.5
2019-Jun-04 07:30N 45°35' E 013°35'611.2
2019-Jun-04 07:01N 45°33' E 013°27'713.8
2019-Jun-04 06:30N 45°29' E 013°19'713.2
2019-Jun-04 06:00N 45°25' E 013°12'713.6
2019-Jun-04 05:30N 45°18' E 013°14'714.1
2019-Jun-04 05:00N 45°11' E 013°16'714.0
2019-Jun-04 04:30N 45°04' E 013°18'713.8
2019-Jun-04 04:00N 44°58' E 013°21'713.8
2019-Jun-04 03:30N 44°52' E 013°26'713.8
2019-Jun-04 03:00N 44°46' E 013°31'713.7
2019-Jun-04 02:30N 44°41' E 013°37'713.3
2019-Jun-04 02:00N 44°35' E 013°42'713.3
2019-Jun-04 01:29N 44°29' E 013°48'613.3
2019-Jun-04 01:00N 44°24' E 013°53'713.4
2019-Jun-04 00:30N 44°18' E 013°58'713.7
2019-Jun-04 00:00N 44°13' E 014°03'47610.3
2019-Jun-02 01:41N 36°20' E 015°12'314.8
2019-Jun-02 01:28N 36°21' E 015°08'714.8
2019-Jun-02 01:00N 36°22' E 015°00'914.7
2019-Jun-02 00:22N 36°25' E 014°49'514.6
2019-Jun-02 00:01N 36°26' E 014°42'714.4
2019-Jun-01 23:31N 36°28' E 014°34'814.0
2019-Jun-01 22:58N 36°31' E 014°25'613.9
2019-Jun-01 22:30N 36°33' E 014°17'713.9
2019-Jun-01 22:00N 36°34' E 014°09'713.8
2019-Jun-01 21:30N 36°35' E 014°01'713.9
2019-Jun-01 21:00N 36°36' E 013°52'713.9
2019-Jun-01 20:30N 36°37' E 013°43'814.1
2019-Jun-01 19:56N 36°37' E 013°33'613.8
2019-Jun-01 19:30N 36°37' E 013°26'713.7
2019-Jun-01 19:00N 36°37' E 013°17'713.8
2019-Jun-01 18:30N 36°38' E 013°09'714.1
2019-Jun-01 18:00N 36°40' E 013°00'814.3
2019-Jun-01 17:28N 36°42' E 012°51'714.6
2019-Jun-01 17:00N 36°44' E 012°43'814.2
2019-Jun-01 16:28N 36°45' E 012°34'  
Track history (hours):
 
Tides and Currents Weather Stations Pressure Air Temp Water Temp Dewpoint Dewpoint Depression Visibility Wind Speed Wind Dir Waves Ship Positions

Mercury

Operator: Royal Caribbean Cruises Ltd

Last reported at 2019-Jun-11 14:56 UTC. Time now 2019-Jun-16 14:45 UTC.
Position N 33°33' E 026°20'.

Length 199 m; draft 8.8 m.

Type: Cargo ship. MMSI: 371862000.

Date/timePositionNaut miles runAvg speedWind from/ knotsBaromVisibWave heightAir tempDewpointWater temp
2019-Jun-11 14:56N 33°33' E 026°20'614.1
2019-Jun-11 14:30N 33°35' E 026°13'1214.2
2019-Jun-11 13:38N 33°40' E 025°60'214.2
2019-Jun-11 13:30N 33°41' E 025°58'714.1
2019-Jun-11 13:00N 33°44' E 025°50'713.9
2019-Jun-11 12:30N 33°46' E 025°43'714.0
2019-Jun-11 12:01N 33°49' E 025°35'714.2
2019-Jun-11 11:31N 33°52' E 025°27'5213.6
2019-Jun-11 07:42N 34°12' E 024°29'313.5
2019-Jun-11 07:30N 34°13' E 024°26'713.6
2019-Jun-11 07:00N 34°16' E 024°19'713.7
2019-Jun-11 06:30N 34°19' E 024°11'713.8
2019-Jun-11 06:00N 34°22' E 024°04'713.8
2019-Jun-11 05:30N 34°25' E 023°56'713.9
2019-Jun-11 05:00N 34°28' E 023°49'714.0
2019-Jun-11 04:30N 34°31' E 023°41'70213.7
2019-Jun-09 01:27N 43°45' E 014°25'613.7
2019-Jun-09 01:00N 43°49' E 014°19'1113.8
2019-Jun-09 00:13N 43°58' E 014°10'313.7
2019-Jun-09 00:00N 43°60' E 014°08'713.7
2019-Jun-08 23:31N 44°05' E 014°02'713.7
2019-Jun-08 23:00N 44°11' E 013°57'713.5
2019-Jun-08 22:30N 44°17' E 013°52'713.6
2019-Jun-08 22:01N 44°23' E 013°47'713.6
2019-Jun-08 21:31N 44°28' E 013°41'713.3
2019-Jun-08 21:00N 44°34' E 013°36'713.3
2019-Jun-08 20:30N 44°39' E 013°31'713.5
2019-Jun-08 20:00N 44°45' E 013°26'713.5
2019-Jun-08 19:30N 44°51' E 013°21'713.4
2019-Jun-08 19:01N 44°56' E 013°16'713.5
2019-Jun-08 18:30N 45°02' E 013°10'713.6
2019-Jun-08 18:00N 45°07' E 013°04'713.5
2019-Jun-08 17:31N 45°13' E 013°01'713.6
2019-Jun-08 17:00N 45°20' E 012°59'612.6
2019-Jun-08 16:31N 45°26' E 012°60'713.6
2019-Jun-08 16:00N 45°30' E 013°08'713.4
2019-Jun-08 15:31N 45°33' E 013°16'713.4
2019-Jun-08 15:01N 45°35' E 013°25'713.2
2019-Jun-08 14:30N 45°38' E 013°34'611.4
2019-Jun-08 14:00N 45°34' E 013°41'2 4.3
2019-Jun-08 13:30N 45°33' E 013°44'0 0.8
2019-Jun-08 13:00N 45°33' E 013°44'0 0.0
2019-Jun-08 12:30N 45°33' E 013°44'0 0.0
2019-Jun-08 12:00N 45°33' E 013°44'0 0.0
2019-Jun-08 11:30N 45°33' E 013°44'0 0.0
2019-Jun-08 10:57N 45°33' E 013°44'0 0.0
2019-Jun-08 10:30N 45°33' E 013°44'0 0.0
2019-Jun-08 10:00N 45°33' E 013°44'0 0.0
2019-Jun-08 09:30N 45°33' E 013°44'0 0.0
2019-Jun-08 09:00N 45°33' E 013°44'0 0.0
2019-Jun-08 08:30N 45°33' E 013°44'0 0.0
2019-Jun-08 08:00N 45°33' E 013°44'0 0.0
2019-Jun-08 07:30N 45°33' E 013°44'0 0.0
2019-Jun-08 07:00N 45°33' E 013°44'0 0.0
2019-Jun-08 06:27N 45°33' E 013°44'0 0.0
2019-Jun-08 06:00N 45°33' E 013°44'0 0.0
2019-Jun-08 05:30N 45°33' E 013°44'0 0.0
2019-Jun-08 05:00N 45°33' E 013°44'0 0.0
2019-Jun-08 04:30N 45°33' E 013°44'0 0.0
2019-Jun-08 04:00N 45°33' E 013°44'0 0.0
2019-Jun-08 03:30N 45°33' E 013°44'0 0.0
2019-Jun-08 02:57N 45°33' E 013°44'0 0.0
2019-Jun-08 02:30N 45°33' E 013°44'0 0.0
2019-Jun-08 01:57N 45°33' E 013°44'0 0.0
2019-Jun-08 01:24N 45°33' E 013°44'0 0.0
2019-Jun-08 01:00N 45°33' E 013°44'0 0.0
2019-Jun-08 00:30N 45°33' E 013°44'0 0.0
2019-Jun-08 00:00N 45°33' E 013°44'0 0.0
2019-Jun-07 23:24N 45°33' E 013°44'0 0.0
2019-Jun-07 23:00N 45°33' E 013°44'0 0.0
2019-Jun-07 22:30N 45°33' E 013°44'0 0.0
2019-Jun-07 22:00N 45°33' E 013°44'0 0.0
2019-Jun-07 21:30N 45°33' E 013°44'0 0.0
2019-Jun-07 21:00N 45°33' E 013°44'0 0.0
2019-Jun-07 20:30N 45°33' E 013°44'0 0.0
2019-Jun-07 20:00N 45°33' E 013°44'0 0.0
2019-Jun-07 19:24N 45°33' E 013°44'0 0.0
2019-Jun-07 19:00N 45°33' E 013°44'0 0.0
2019-Jun-07 18:24N 45°33' E 013°44'0 0.0
2019-Jun-07 18:00N 45°33' E 013°44'0 0.0
2019-Jun-07 17:30N 45°33' E 013°44'0 0.0
2019-Jun-07 17:00N 45°33' E 013°44'0 0.0
2019-Jun-07 16:27N 45°33' E 013°44'0 0.0
2019-Jun-07 15:57N 45°33' E 013°44'0 0.0
2019-Jun-07 15:30N 45°33' E 013°44'0 0.0
2019-Jun-07 15:00N 45°33' E 013°44'0 0.0
2019-Jun-07 14:30N 45°33' E 013°44'0 0.0
2019-Jun-07 14:00N 45°33' E 013°44'0 0.0
2019-Jun-07 13:30N 45°33' E 013°44'0 0.0
2019-Jun-07 12:54N 45°33' E 013°44'0 0.0
2019-Jun-07 12:30N 45°33' E 013°44'0 0.0
2019-Jun-07 12:00N 45°33' E 013°44'0 0.0
2019-Jun-07 11:27N 45°33' E 013°44'0 0.0
2019-Jun-07 10:57N 45°33' E 013°44'0 0.0
2019-Jun-07 10:30N 45°33' E 013°44'0 0.0
2019-Jun-07 09:48N 45°33' E 013°44'0 0.0
2019-Jun-07 09:30N 45°33' E 013°44'0 0.0
2019-Jun-07 08:57N 45°33' E 013°44'0 0.0
2019-Jun-07 08:30N 45°33' E 013°44'0 0.0
2019-Jun-07 07:57N 45°33' E 013°44'0 0.0
2019-Jun-07 07:30N 45°33' E 013°44'0 0.0
2019-Jun-07 07:00N 45°33' E 013°44'0 0.0
2019-Jun-07 06:24N 45°33' E 013°44'0 0.0
2019-Jun-07 06:00N 45°33' E 013°44'0 0.0
2019-Jun-07 05:30N 45°33' E 013°44'0 0.0
2019-Jun-07 04:57N 45°33' E 013°44'0 0.0
2019-Jun-07 04:30N 45°33' E 013°44'0 0.0
2019-Jun-07 04:00N 45°33' E 013°44'0 0.0
2019-Jun-07 03:27N 45°33' E 013°44'0 0.0
2019-Jun-07 03:00N 45°33' E 013°44'0 0.0
2019-Jun-07 02:30N 45°33' E 013°44'0 0.0
2019-Jun-07 02:00N 45°33' E 013°44'0 0.0
2019-Jun-07 01:30N 45°33' E 013°44'0 0.0
2019-Jun-07 00:57N 45°33' E 013°44'0 0.0
2019-Jun-07 00:30N 45°33' E 013°44'0 0.0
2019-Jun-07 00:00N 45°33' E 013°44'0 0.0
2019-Jun-06 23:30N 45°33' E 013°44'0 0.0
2019-Jun-06 22:57N 45°33' E 013°44'0 0.0
2019-Jun-06 22:27N 45°33' E 013°44'0 0.0
2019-Jun-06 22:00N 45°33' E 013°44'0 0.0
2019-Jun-06 21:27N 45°33' E 013°44'0 0.0
2019-Jun-06 21:00N 45°33' E 013°44'0 0.0
2019-Jun-06 20:30N 45°33' E 013°44'0 0.0
2019-Jun-06 19:57N 45°33' E 013°44'0 0.0
2019-Jun-06 19:27N 45°33' E 013°44'0 0.0
2019-Jun-06 18:57N 45°33' E 013°44'0 0.0
2019-Jun-06 18:30N 45°33' E 013°44'0 0.0
2019-Jun-06 18:00N 45°33' E 013°44'0 0.0
2019-Jun-06 17:27N 45°33' E 013°44'0 0.0
2019-Jun-06 17:00N 45°33' E 013°44'0 0.0
2019-Jun-06 16:30N 45°33' E 013°44'0 0.0
2019-Jun-06 16:00N 45°33' E 013°44'0 0.0
2019-Jun-06 15:27N 45°33' E 013°44'0 0.0
2019-Jun-06 15:00N 45°33' E 013°44'0 0.0
2019-Jun-06 14:27N 45°33' E 013°44'0 0.0
2019-Jun-06 14:00N 45°33' E 013°44'0 0.0
2019-Jun-06 13:27N 45°33' E 013°44'0 0.0
2019-Jun-06 13:00N 45°33' E 013°44'0 0.0
2019-Jun-06 12:30N 45°33' E 013°44'0 0.0
2019-Jun-06 12:00N 45°33' E 013°44'0 0.0
2019-Jun-06 11:30N 45°33' E 013°44'0 0.5
2019-Jun-06 11:00N 45°33' E 013°44'2 4.1
2019-Jun-06 10:30N 45°34' E 013°41'1 1.8
2019-Jun-06 09:59N 45°35' E 013°41'0 0.0
2019-Jun-06 09:29N 45°35' E 013°41'0 0.0
2019-Jun-06 08:56N 45°35' E 013°41'0 0.0
2019-Jun-06 08:26N 45°35' E 013°41'0 0.0
2019-Jun-06 07:53N 45°35' E 013°41'0 0.0
2019-Jun-06 07:17N 45°35' E 013°41'0 0.1
2019-Jun-06 06:56N 45°35' E 013°41'0 0.0
2019-Jun-06 06:29N 45°35' E 013°41'0 0.0
2019-Jun-06 05:59N 45°35' E 013°41'0 0.1
2019-Jun-06 05:26N 45°35' E 013°41'0 0.0
2019-Jun-06 04:59N 45°35' E 013°41'0 0.0
2019-Jun-06 04:29N 45°35' E 013°41'0 0.0
2019-Jun-06 03:53N 45°35' E 013°41'0 0.1
2019-Jun-06 03:26N 45°35' E 013°41'0 0.0
2019-Jun-06 02:59N 45°35' E 013°41'0 0.0
2019-Jun-06 02:29N 45°35' E 013°41'0 0.0
2019-Jun-06 01:59N 45°35' E 013°41'0 0.0
2019-Jun-06 01:20N 45°35' E 013°41'0 0.0
2019-Jun-06 00:59N 45°35' E 013°41'0 0.0
2019-Jun-06 00:29N 45°35' E 013°41'0 0.0
2019-Jun-05 23:59N 45°35' E 013°41'0 0.0
2019-Jun-05 23:29N 45°35' E 013°41'0 0.0
2019-Jun-05 22:59N 45°35' E 013°41'0 0.0
2019-Jun-05 22:29N 45°35' E 013°41'0 0.0
2019-Jun-05 21:56N 45°35' E 013°41'0 0.0
2019-Jun-05 21:26N 45°35' E 013°41'0 0.0
2019-Jun-05 20:59N 45°35' E 013°41'0 0.1
2019-Jun-05 20:29N 45°35' E 013°41'0 0.0
2019-Jun-05 19:56N 45°35' E 013°41'0 0.0
2019-Jun-05 19:29N 45°35' E 013°41'0 0.0
2019-Jun-05 18:56N 45°35' E 013°41'0 0.0
2019-Jun-05 18:29N 45°35' E 013°41'0 0.0
2019-Jun-05 17:59N 45°35' E 013°41'0 0.0
2019-Jun-05 17:29N 45°35' E 013°41'0 0.0
2019-Jun-05 16:56N 45°35' E 013°41'0 0.0
2019-Jun-05 16:29N 45°35' E 013°41'0 0.0
2019-Jun-05 15:53N 45°35' E 013°41'0 0.0
2019-Jun-05 15:23N 45°35' E 013°41'0 0.0
2019-Jun-05 14:59N 45°35' E 013°41'0 0.0
2019-Jun-05 14:26N 45°35' E 013°41'0 0.0
2019-Jun-05 13:59N 45°35' E 013°41'0 0.0
2019-Jun-05 13:29N 45°35' E 013°41'0 0.0
2019-Jun-05 12:53N 45°35' E 013°41'0 0.0
2019-Jun-05 12:26N 45°35' E 013°41'0 0.0
2019-Jun-05 11:59N 45°35' E 013°41'0 0.0
2019-Jun-05 11:23N 45°35' E 013°41'0 0.0
2019-Jun-05 10:53N 45°35' E 013°41'0 0.0
2019-Jun-05 10:29N 45°35' E 013°41'0 0.0
2019-Jun-05 09:53N 45°35' E 013°41'0 0.0
2019-Jun-05 09:26N 45°35' E 013°41'0 0.0
2019-Jun-05 08:50N 45°35' E 013°41'0 0.0
2019-Jun-05 08:29N 45°35' E 013°41'0 0.1
2019-Jun-05 07:59N 45°35' E 013°41'0 0.1
2019-Jun-05 07:29N 45°35' E 013°41'0 0.0
2019-Jun-05 06:53N 45°35' E 013°41'0 0.0
2019-Jun-05 06:29N 45°35' E 013°41'0 0.0
2019-Jun-05 05:59N 45°35' E 013°41'0 0.0
2019-Jun-05 05:29N 45°35' E 013°41'0 0.0
2019-Jun-05 04:59N 45°35' E 013°41'0 0.0
2019-Jun-05 04:29N 45°35' E 013°41'0 0.0
2019-Jun-05 03:59N 45°35' E 013°41'0 0.0
2019-Jun-05 03:29N 45°35' E 013°41'0 0.0
2019-Jun-05 02:56N 45°35' E 013°41'0 0.0
2019-Jun-05 02:29N 45°35' E 013°41'0 0.0
2019-Jun-05 01:59N 45°35' E 013°41'0 0.0
2019-Jun-05 01:29N 45°35' E 013°41'0 0.0
2019-Jun-05 00:59N 45°35' E 013°41'0 0.0
2019-Jun-05 00:29N 45°35' E 013°41'0 0.0
2019-Jun-04 23:59N 45°35' E 013°41'0 0.0
2019-Jun-04 23:29N 45°35' E 013°41'0 0.0
2019-Jun-04 22:59N 45°35' E 013°41'0 0.0
2019-Jun-04 22:29N 45°35' E 013°41'0 0.0
2019-Jun-04 21:59N 45°35' E 013°41'0 0.0
2019-Jun-04 21:29N 45°35' E 013°41'0 0.0
2019-Jun-04 20:59N 45°35' E 013°41'0 0.0
2019-Jun-04 20:29N 45°35' E 013°41'0 0.0
2019-Jun-04 19:59N 45°35' E 013°41'0 0.0
2019-Jun-04 19:29N 45°35' E 013°41'0 0.0
2019-Jun-04 18:59N 45°35' E 013°41'0 0.0
2019-Jun-04 18:29N 45°35' E 013°41'0 0.0
2019-Jun-04 17:59N 45°35' E 013°41'0 0.0
2019-Jun-04 17:29N 45°35' E 013°41'0 0.0
2019-Jun-04 16:59N 45°35' E 013°41'0 0.0
2019-Jun-04 16:29N 45°35' E 013°41'0 0.0
2019-Jun-04 15:59N 45°35' E 013°41'0 0.0
2019-Jun-04 15:29N 45°35' E 013°41'0 0.0
2019-Jun-04 14:59N 45°35' E 013°41'0 0.0
2019-Jun-04 14:29N 45°35' E 013°41'0 0.1
2019-Jun-04 13:59N 45°35' E 013°41'0 0.0
2019-Jun-04 13:29N 45°35' E 013°41'0 0.1
2019-Jun-04 12:59N 45°35' E 013°41'0 0.1
2019-Jun-04 12:29N 45°35' E 013°41'0 0.0
2019-Jun-04 11:59N 45°35' E 013°41'0 0.0
2019-Jun-04 11:29N 45°35' E 013°41'0 0.0
2019-Jun-04 10:59N 45°35' E 013°41'0 0.1
2019-Jun-04 10:29N 45°35' E 013°41'0 0.0
2019-Jun-04 09:59N 45°35' E 013°41'0 0.0
2019-Jun-04 09:29N 45°35' E 013°41'0 0.0
2019-Jun-04 08:59N 45°35' E 013°41'0 0.0
2019-Jun-04 08:29N 45°35' E 013°41'0 1.0
2019-Jun-04 08:00N 45°35' E 013°40'4 7.5
2019-Jun-04 07:30N 45°35' E 013°35'611.2
2019-Jun-04 07:01N 45°33' E 013°27'713.8
2019-Jun-04 06:30N 45°29' E 013°19'713.2
2019-Jun-04 06:00N 45°25' E 013°12'713.6
2019-Jun-04 05:30N 45°18' E 013°14'714.1
2019-Jun-04 05:00N 45°11' E 013°16'714.0
2019-Jun-04 04:30N 45°04' E 013°18'713.8
2019-Jun-04 04:00N 44°58' E 013°21'713.8
2019-Jun-04 03:30N 44°52' E 013°26'713.8
2019-Jun-04 03:00N 44°46' E 013°31'713.7
2019-Jun-04 02:30N 44°41' E 013°37'713.3
2019-Jun-04 02:00N 44°35' E 013°42'713.3
2019-Jun-04 01:29N 44°29' E 013°48'613.3
2019-Jun-04 01:00N 44°24' E 013°53'713.4
2019-Jun-04 00:30N 44°18' E 013°58'713.7
2019-Jun-04 00:00N 44°13' E 014°03'47610.3
2019-Jun-02 01:41N 36°20' E 015°12'314.8
2019-Jun-02 01:28N 36°21' E 015°08'714.8
2019-Jun-02 01:00N 36°22' E 015°00'914.7
2019-Jun-02 00:22N 36°25' E 014°49'514.6
2019-Jun-02 00:01N 36°26' E 014°42'714.4
2019-Jun-01 23:31N 36°28' E 014°34'814.0
2019-Jun-01 22:58N 36°31' E 014°25'613.9
2019-Jun-01 22:30N 36°33' E 014°17'713.9
2019-Jun-01 22:00N 36°34' E 014°09'713.8
2019-Jun-01 21:30N 36°35' E 014°01'713.9
2019-Jun-01 21:00N 36°36' E 013°52'713.9
2019-Jun-01 20:30N 36°37' E 013°43'814.1
2019-Jun-01 19:56N 36°37' E 013°33'613.8
2019-Jun-01 19:30N 36°37' E 013°26'713.7
2019-Jun-01 19:00N 36°37' E 013°17'713.8
2019-Jun-01 18:30N 36°38' E 013°09'714.1
2019-Jun-01 18:00N 36°40' E 013°00'814.3
2019-Jun-01 17:28N 36°42' E 012°51'714.6
2019-Jun-01 17:00N 36°44' E 012°43'814.2
2019-Jun-01 16:28N 36°45' E 012°34'  

Dump ship's entire track history